createdAt,value
2018-12-09T00:00:07.481Z,69.48
2018-12-09T00:02:12.438Z,67.53
2018-12-09T00:04:17.116Z,68.20
2018-12-09T00:06:23.057Z,68.58
2018-12-09T00:08:28.113Z,68.24
2018-12-09T00:10:33.167Z,69.46
2018-12-09T00:12:37.966Z,69.30
2018-12-09T00:14:42.789Z,69.60
2018-12-09T00:16:47.651Z,69.47
2018-12-09T00:18:52.731Z,69.31
2018-12-09T00:20:58.440Z,67.91
2018-12-09T00:23:03.483Z,67.62
2018-12-09T00:25:08.422Z,67.15
2018-12-09T00:27:14.119Z,66.59
2018-12-09T00:29:19.067Z,66.95
2018-12-09T00:31:24.883Z,67.23
2018-12-09T00:33:30.651Z,67.50
2018-12-09T00:35:36.547Z,67.73
2018-12-09T00:37:42.406Z,67.78
2018-12-09T00:39:47.313Z,68.29
2018-12-09T00:41:52.237Z,68.35
2018-12-09T00:43:57.204Z,68.49
2018-12-09T00:46:02.883Z,68.65
2018-12-09T00:48:07.593Z,68.50
2018-12-09T00:50:12.721Z,69.50
2018-12-09T00:52:19.214Z,69.21
2018-12-09T00:54:25.412Z,68.97
2018-12-09T00:56:30.205Z,69.48
2018-12-09T00:58:35.036Z,69.02
2018-12-09T01:00:40.637Z,69.95
2018-12-09T01:02:45.333Z,69.64
2018-12-09T01:04:51.333Z,69.93
2018-12-09T01:06:56.197Z,70.34
2018-12-09T01:09:02.174Z,70.11
2018-12-09T01:11:08.044Z,70.96
2018-12-09T01:13:13.306Z,71.15
2018-12-09T01:17:36.811Z,71.30
2018-12-09T01:19:42.406Z,71.60
2018-12-09T01:21:47.913Z,71.23
2018-12-09T01:23:52.956Z,70.94
2018-12-09T01:25:57.867Z,70.34
2018-12-09T01:28:02.669Z,70.80
2018-12-09T01:30:07.807Z,70.66
2018-12-09T01:32:12.865Z,70.06
2018-12-09T01:34:21.195Z,70.50
2018-12-09T01:36:26.026Z,69.38
2018-12-09T01:38:34.695Z,68.77
2018-12-09T01:40:45.602Z,68.75
2018-12-09T01:42:50.435Z,68.75
2018-12-09T01:44:55.408Z,68.34
2018-12-09T01:47:00.436Z,68.22
2018-12-09T01:49:05.431Z,67.91
2018-12-09T01:51:10.294Z,67.31
2018-12-09T01:53:35.506Z,67.62
2018-12-09T01:55:41.199Z,66.44
2018-12-09T01:57:46.078Z,66.39
2018-12-09T01:59:52.057Z,65.81
2018-12-09T02:01:56.808Z,65.91
2018-12-09T02:04:01.828Z,66.03
2018-12-09T02:06:06.948Z,66.30
2018-12-09T02:08:11.708Z,65.86
2018-12-09T02:10:16.439Z,66.30
2018-12-09T02:12:21.593Z,66.89
2018-12-09T02:14:26.492Z,66.82
2018-12-09T02:16:31.332Z,68.26
2018-12-09T02:18:36.224Z,70.26
2018-12-09T02:20:41.188Z,72.03
2018-12-09T02:22:47.017Z,74.10
2018-12-09T02:24:51.775Z,74.65
2018-12-09T02:26:57.030Z,75.33
2018-12-09T02:29:01.911Z,74.74
2018-12-09T02:31:07.448Z,75.12
2018-12-09T02:33:12.332Z,75.54
2018-12-09T02:35:17.344Z,75.37
2018-12-09T02:37:22.240Z,76.08
2018-12-09T02:39:27.088Z,75.57
2018-12-09T02:41:31.900Z,75.97
2018-12-09T02:43:36.753Z,75.38
2018-12-09T02:45:41.719Z,75.45
2018-12-09T02:47:46.449Z,77.08
2018-12-09T02:49:51.200Z,78.26
2018-12-09T02:51:56.102Z,78.63
2018-12-09T02:54:01.647Z,78.58
2018-12-09T02:56:06.311Z,77.11
2018-12-09T02:58:11.142Z,77.40
2018-12-09T03:00:15.990Z,78.02
2018-12-09T03:02:21.230Z,78.17
2018-12-09T03:04:26.138Z,77.83
2018-12-09T03:06:30.996Z,78.37
2018-12-09T03:08:35.847Z,78.25
2018-12-09T03:10:41.241Z,79.25
2018-12-09T03:12:47.058Z,79.17
2018-12-09T03:14:52.637Z,78.56
2018-12-09T03:16:58.325Z,77.90
2018-12-09T03:19:03.367Z,78.27
2018-12-09T03:21:08.822Z,77.49
2018-12-09T03:23:13.567Z,77.28
2018-12-09T03:25:18.565Z,77.13
2018-12-09T03:27:23.385Z,77.23
2018-12-09T03:29:28.642Z,77.19
2018-12-09T03:31:33.420Z,76.88
2018-12-09T03:33:38.508Z,76.75
2018-12-09T03:35:43.244Z,77.13
2018-12-09T03:37:49.000Z,76.49
2018-12-09T03:39:54.481Z,76.62
2018-12-09T03:41:59.665Z,76.67
2018-12-09T03:44:04.717Z,76.05
2018-12-09T03:46:09.694Z,75.28
2018-12-09T03:48:15.050Z,75.37
2018-12-09T03:50:19.896Z,75.71
2018-12-09T03:52:24.783Z,76.67
2018-12-09T03:54:29.564Z,76.59
2018-12-09T03:56:34.541Z,76.47
2018-12-09T03:58:39.459Z,76.99
2018-12-09T04:00:45.313Z,77.37
2018-12-09T04:02:50.116Z,77.94
2018-12-09T04:04:54.975Z,77.76
2018-12-09T04:06:59.817Z,77.44
2018-12-09T04:09:05.725Z,76.97
2018-12-09T04:11:10.429Z,77.73
2018-12-09T04:13:16.395Z,77.85
2018-12-09T04:15:21.270Z,76.70
2018-12-09T04:17:26.079Z,77.08
2018-12-09T04:19:32.084Z,77.22
2018-12-09T04:21:36.849Z,77.15
2018-12-09T04:23:42.584Z,76.96
2018-12-09T04:25:47.931Z,76.89
2018-12-09T04:27:52.755Z,77.18
2018-12-09T04:29:57.492Z,76.88
2018-12-09T04:32:02.568Z,77.11
2018-12-09T04:34:07.548Z,76.87
2018-12-09T04:36:12.297Z,75.50
2018-12-09T04:38:17.068Z,76.02
2018-12-09T04:40:22.624Z,75.71
2018-12-09T04:42:27.445Z,76.04
2018-12-09T04:44:32.152Z,76.51
2018-12-09T04:46:36.947Z,77.04
2018-12-09T04:48:41.715Z,77.73
2018-12-09T04:50:46.532Z,77.09
2018-12-09T04:52:51.652Z,78.00
2018-12-09T04:54:56.701Z,77.37
2018-12-09T04:57:01.572Z,77.20
2018-12-09T04:59:20.423Z,76.96
2018-12-09T05:01:27.022Z,77.08
2018-12-09T05:03:32.664Z,77.16
2018-12-09T05:05:37.438Z,76.75
2018-12-09T05:07:43.178Z,75.59
2018-12-09T05:09:49.133Z,75.41
2018-12-09T05:11:53.923Z,75.06
2018-12-09T05:13:58.876Z,75.39
2018-12-09T05:16:03.629Z,75.62
2018-12-09T05:18:08.936Z,75.40
2018-12-09T05:20:13.788Z,76.02
2018-12-09T05:22:18.565Z,75.87
2018-12-09T05:24:24.443Z,75.34
2018-12-09T05:26:29.148Z,75.13
2018-12-09T05:28:33.999Z,75.14
2018-12-09T05:30:38.751Z,75.39
2018-12-09T05:32:44.194Z,75.81
2018-12-09T05:34:48.916Z,75.88
2018-12-09T05:36:53.702Z,76.08
2018-12-09T05:38:58.574Z,76.39
2018-12-09T05:41:03.539Z,75.61
2018-12-09T05:43:08.325Z,76.02
2018-12-09T05:45:13.281Z,76.25
2018-12-09T05:50:03.315Z,74.97
2018-12-09T05:52:09.092Z,75.29
2018-12-09T05:54:14.688Z,75.15
2018-12-09T05:56:21.111Z,75.21
2018-12-09T05:58:29.791Z,75.97
2018-12-09T06:00:34.640Z,76.74
2018-12-09T06:02:55.900Z,76.56
2018-12-09T06:05:00.835Z,77.41
2018-12-09T06:07:05.656Z,76.82
2018-12-09T06:09:10.787Z,77.11
2018-12-09T06:11:15.579Z,77.69
2018-12-09T06:13:20.996Z,78.22
2018-12-09T06:15:25.868Z,78.96
2018-12-09T06:17:31.108Z,79.23
2018-12-09T06:19:36.030Z,79.35
2018-12-09T06:21:40.851Z,80.13
2018-12-09T06:23:45.603Z,79.83
2018-12-09T06:25:50.940Z,79.99
2018-12-09T06:27:55.805Z,80.13
2018-12-09T06:30:00.697Z,80.54
2018-12-09T06:32:05.685Z,81.44
2018-12-09T06:34:10.492Z,81.63
2018-12-09T06:36:15.309Z,81.43
2018-12-09T06:38:20.021Z,80.38
2018-12-09T06:40:25.761Z,79.82
2018-12-09T06:42:30.608Z,79.92
2018-12-09T06:44:36.226Z,79.25
2018-12-09T06:46:41.317Z,79.47
2018-12-09T06:48:46.049Z,79.72
2018-12-09T06:50:51.050Z,79.72
2018-12-09T06:52:56.721Z,80.05
2018-12-09T06:55:01.693Z,79.57
2018-12-09T06:57:06.613Z,79.30
2018-12-09T06:59:11.482Z,79.01
2018-12-09T07:01:16.634Z,78.67
2018-12-09T07:03:22.533Z,79.12
2018-12-09T07:05:27.507Z,77.93
2018-12-09T07:07:32.214Z,77.82
2018-12-09T07:09:37.009Z,78.17
2018-12-09T07:11:41.888Z,77.01
2018-12-09T07:13:46.792Z,76.95
2018-12-09T07:15:51.765Z,76.77
2018-12-09T07:17:57.002Z,76.28
2018-12-09T07:20:02.880Z,76.79
2018-12-09T07:22:07.752Z,76.75
2018-12-09T07:24:13.640Z,76.56
2018-12-09T07:26:18.560Z,75.89
2018-12-09T07:28:23.997Z,75.81
2018-12-09T07:30:29.376Z,75.74
2018-12-09T07:32:34.180Z,75.62
2018-12-09T07:34:40.953Z,75.09
2018-12-09T07:36:48.703Z,74.27
2018-12-09T07:38:53.565Z,74.69
2018-12-09T07:41:02.430Z,74.07
2018-12-09T07:43:07.373Z,74.34
2018-12-09T07:45:12.517Z,74.53
2018-12-09T07:47:17.326Z,73.58
2018-12-09T07:49:22.085Z,74.39
2018-12-09T07:51:26.905Z,74.36
2018-12-09T07:53:31.976Z,73.76
2018-12-09T07:55:36.812Z,73.20
2018-12-09T07:57:43.620Z,73.49
2018-12-09T07:59:50.673Z,72.63
2018-12-09T08:01:56.012Z,73.27
2018-12-09T08:04:04.471Z,72.58
2018-12-09T08:06:14.353Z,72.84
2018-12-09T08:08:20.071Z,71.60
2018-12-09T08:10:25.502Z,71.45
2018-12-09T08:12:30.333Z,72.54
2018-12-09T08:14:35.085Z,71.16
2018-12-09T08:16:39.824Z,71.40
2018-12-09T08:18:44.876Z,70.70
2018-12-09T08:20:49.626Z,70.38
2018-12-09T08:22:54.968Z,70.82
2018-12-09T08:25:00.038Z,70.99
2018-12-09T08:27:08.415Z,71.04
2018-12-09T08:29:13.288Z,71.11
2018-12-09T08:31:19.211Z,70.98
2018-12-09T08:33:24.268Z,70.63
2018-12-09T08:35:29.079Z,71.26
2018-12-09T08:37:34.053Z,70.93
2018-12-09T08:39:43.348Z,70.54
2018-12-09T08:41:55.505Z,70.82
2018-12-09T08:44:00.446Z,70.86
2018-12-09T08:46:05.526Z,70.99
2018-12-09T08:48:12.760Z,70.20
2018-12-09T08:50:18.091Z,69.90
2018-12-09T08:52:28.223Z,69.66
2018-12-09T08:54:34.909Z,69.82
2018-12-09T08:56:40.500Z,69.65
2018-12-09T08:58:45.726Z,69.35
2018-12-09T09:00:51.230Z,69.04
2018-12-09T09:05:12.775Z,69.83
2018-12-09T09:09:34.286Z,70.54
2018-12-09T09:11:39.238Z,70.35
2018-12-09T09:13:44.135Z,70.41
2018-12-09T09:15:49.024Z,69.83
2018-12-09T09:17:53.915Z,69.77
2018-12-09T09:19:59.468Z,69.71
2018-12-09T09:22:04.624Z,70.17
2018-12-09T09:24:09.932Z,69.91
2018-12-09T09:26:16.567Z,70.20
2018-12-09T09:28:22.673Z,70.06
2018-12-09T09:30:28.516Z,70.94
2018-12-09T09:32:33.392Z,70.82
2018-12-09T09:34:38.251Z,69.86
2018-12-09T09:36:43.106Z,70.33
2018-12-09T09:38:48.035Z,70.61
2018-12-09T09:40:54.429Z,70.71
2018-12-09T09:42:59.271Z,71.06
2018-12-09T09:45:04.365Z,70.85
2018-12-09T09:47:09.435Z,70.09
2018-12-09T09:49:14.466Z,70.80
2018-12-09T09:51:20.668Z,71.48
2018-12-09T09:53:26.154Z,71.92
2018-12-09T09:55:32.528Z,72.34
2018-12-09T09:57:37.402Z,72.58
2018-12-09T09:59:42.236Z,73.31
2018-12-09T10:01:47.895Z,73.74
2018-12-09T10:03:52.765Z,74.15
2018-12-09T10:05:57.627Z,74.87
2018-12-09T10:08:05.661Z,74.61
2018-12-09T10:10:10.687Z,75.08
2018-12-09T10:12:18.060Z,75.54
2018-12-09T10:14:23.490Z,75.65
2018-12-09T10:16:28.481Z,76.21
2018-12-09T10:18:33.646Z,76.72
2018-12-09T10:20:40.563Z,76.11
2018-12-09T10:22:48.236Z,77.24
2018-12-09T10:24:53.199Z,76.79
2018-12-09T10:27:01.485Z,76.56
2018-12-09T10:29:09.248Z,77.09
2018-12-09T10:31:17.446Z,76.07
2018-12-09T10:33:25.711Z,77.33
2018-12-09T10:35:33.080Z,77.75
2018-12-09T10:37:39.996Z,77.66
2018-12-09T10:39:47.125Z,77.45
2018-12-09T10:41:53.976Z,78.20
2018-12-09T10:44:00.470Z,78.41
2018-12-09T10:46:06.936Z,78.53
2018-12-09T10:48:14.368Z,78.31
2018-12-09T10:50:21.024Z,78.09
2018-12-09T10:52:28.814Z,77.89
2018-12-09T10:54:33.660Z,77.73
2018-12-09T10:56:40.902Z,77.47
2018-12-09T10:58:48.969Z,76.03
2018-12-09T11:01:27.173Z,75.67
2018-12-09T11:03:34.503Z,75.77
2018-12-09T11:05:42.516Z,76.36
2018-12-09T11:07:51.536Z,76.12
2018-12-09T11:09:58.798Z,75.91
2018-12-09T11:12:06.518Z,75.51
2018-12-09T11:14:14.140Z,75.02
2018-12-09T11:16:22.214Z,74.07
2018-12-09T11:18:31.234Z,75.08
2018-12-09T11:20:37.849Z,74.75
2018-12-09T11:22:44.817Z,74.47
2018-12-09T11:24:50.341Z,73.40
2018-12-09T11:26:56.663Z,73.10
2018-12-09T11:31:27.792Z,73.31
2018-12-09T11:33:32.745Z,73.67
2018-12-09T11:35:38.020Z,73.37
2018-12-09T11:37:43.029Z,73.62
2018-12-09T11:39:48.077Z,74.17
2018-12-09T11:41:53.161Z,74.24
2018-12-09T11:43:58.183Z,74.67
2018-12-09T11:46:04.841Z,74.84
2018-12-09T11:48:10.875Z,75.41
2018-12-09T11:50:15.896Z,77.74
2018-12-09T11:52:20.797Z,77.36
2018-12-09T11:54:26.216Z,80.98
2018-12-09T11:56:31.216Z,81.91
2018-12-09T11:58:37.351Z,82.33
2018-12-09T12:00:43.380Z,82.81
2018-12-09T12:02:48.366Z,82.93
2018-12-09T12:04:54.278Z,83.51
2018-12-09T12:06:59.282Z,83.12
2018-12-09T12:09:05.471Z,83.59
2018-12-09T12:11:10.446Z,83.67
2018-12-09T12:13:16.407Z,83.32
2018-12-09T12:15:22.838Z,83.93
2018-12-09T12:17:28.452Z,84.19
2018-12-09T12:19:36.354Z,84.37
2018-12-09T12:21:48.197Z,84.47
2018-12-09T12:23:53.169Z,83.90
2018-12-09T12:26:00.345Z,84.70
2018-12-09T12:28:07.297Z,85.12
2018-12-09T12:30:12.285Z,85.05
2018-12-09T12:32:17.249Z,84.83
2018-12-09T12:34:22.782Z,85.04
2018-12-09T12:36:27.811Z,85.05
2018-12-09T12:38:33.939Z,85.49
2018-12-09T12:40:38.959Z,84.98
2018-12-09T12:42:44.996Z,84.76
2018-12-09T13:00:21.931Z,85.94
2018-12-09T13:02:27.389Z,85.86
2018-12-09T13:04:32.672Z,85.95
2018-12-09T13:06:38.036Z,86.03
2018-12-09T13:08:44.786Z,85.87
2018-12-09T13:10:49.788Z,85.79
2018-12-09T13:12:56.157Z,85.59
2018-12-09T13:15:02.586Z,85.24
2018-12-09T13:17:07.657Z,85.39
2018-12-09T13:19:13.275Z,85.33
2018-12-09T13:21:19.933Z,84.55
2018-12-09T13:23:25.930Z,84.79
2018-12-09T13:25:32.328Z,84.82
2018-12-09T13:27:39.605Z,84.46
2018-12-09T13:29:45.116Z,84.39
2018-12-09T13:31:51.662Z,84.22
2018-12-09T13:33:59.478Z,83.15
2018-12-09T13:36:05.265Z,83.11
2018-12-09T13:38:10.708Z,83.34
2018-12-09T13:40:20.476Z,83.08
2018-12-09T13:42:26.127Z,82.35
2018-12-09T13:44:42.458Z,82.40
2018-12-09T13:46:52.056Z,82.55
2018-12-09T13:48:59.727Z,82.81
2018-12-09T13:51:07.131Z,82.53
2018-12-09T13:53:14.645Z,81.95
2018-12-09T13:55:20.232Z,82.30
2018-12-09T13:57:25.863Z,81.87
2018-12-09T13:59:31.796Z,82.60
2018-12-09T14:01:37.023Z,82.93
2018-12-09T14:03:42.450Z,82.79
2018-12-09T14:05:48.210Z,82.37
2018-12-09T14:07:53.749Z,82.43
2018-12-09T14:09:58.728Z,82.43
2018-12-09T14:12:03.940Z,82.16
2018-12-09T14:14:09.101Z,81.30
2018-12-09T14:16:14.158Z,81.50
2018-12-09T14:18:19.439Z,81.97
2018-12-09T14:20:24.394Z,82.13
2018-12-09T14:22:31.241Z,81.74
2018-12-09T14:24:36.759Z,81.66
2018-12-09T14:26:41.619Z,81.36
2018-12-09T14:28:46.633Z,81.19
2018-12-09T14:30:52.584Z,81.38
2018-12-09T14:32:57.648Z,81.08
2018-12-09T14:35:02.544Z,80.72
2018-12-09T14:37:07.704Z,81.06
2018-12-09T14:39:13.424Z,80.97
2018-12-09T14:41:18.681Z,80.57
2018-12-09T14:43:23.645Z,80.32
2018-12-09T14:45:28.645Z,80.57
2018-12-09T15:05:41.793Z,78.69
2018-12-09T15:07:46.710Z,79.35
2018-12-09T15:09:52.514Z,79.20
2018-12-09T15:11:57.466Z,79.59
2018-12-09T15:14:03.257Z,79.56
2018-12-09T15:16:08.109Z,79.86
2018-12-09T15:18:13.077Z,79.92
2018-12-09T15:20:18.820Z,79.11
2018-12-09T15:22:23.871Z,77.95
2018-12-09T15:24:30.480Z,77.50
2018-12-09T15:26:35.718Z,77.15
2018-12-09T15:28:40.885Z,76.87
2018-12-09T15:32:47.378Z,76.96
2018-12-09T15:34:54.278Z,76.34
2018-12-09T15:36:59.149Z,76.85
2018-12-09T15:39:04.481Z,76.53
2018-12-09T15:41:09.332Z,76.40
2018-12-09T15:43:15.116Z,76.41
2018-12-09T15:45:20.878Z,75.86
2018-12-09T15:47:25.944Z,76.22
2018-12-09T15:49:31.676Z,75.54
2018-12-09T15:51:36.521Z,75.67
2018-12-09T15:53:41.461Z,75.40
2018-12-09T15:55:47.206Z,74.72
2018-12-09T15:57:53.466Z,74.74
2018-12-09T15:59:59.109Z,74.37
2018-12-09T16:20:10.730Z,74.57
2018-12-09T16:22:15.656Z,74.84
2018-12-09T16:24:21.555Z,75.42
2018-12-09T16:26:26.777Z,74.55
2018-12-09T16:28:31.753Z,75.00
2018-12-09T16:30:37.279Z,74.38
2018-12-09T16:32:42.309Z,75.09
2018-12-09T16:34:47.909Z,75.97
2018-12-09T16:36:56.187Z,76.26
2018-12-09T16:39:01.914Z,75.73
2018-12-09T16:41:07.101Z,76.64
2018-12-09T16:43:11.996Z,76.61
2018-12-09T16:45:17.274Z,77.66
2018-12-09T16:47:22.221Z,78.02
2018-12-09T16:49:29.506Z,77.32
2018-12-09T16:51:34.713Z,77.94
2018-12-09T16:53:40.170Z,77.66
2018-12-09T16:55:45.574Z,78.08
2018-12-09T16:57:50.581Z,77.19
2018-12-09T16:59:56.010Z,76.93
2018-12-09T17:02:00.743Z,76.58
2018-12-09T17:04:05.589Z,76.67
2018-12-09T17:06:10.497Z,76.41
2018-12-09T17:08:15.461Z,76.25
2018-12-09T17:10:21.485Z,76.57
2018-12-09T17:12:27.795Z,77.15
2018-12-09T17:14:34.769Z,76.34
2018-12-09T17:16:39.723Z,76.23
2018-12-09T17:18:46.897Z,76.37
2018-12-09T17:20:54.105Z,76.13
2018-12-09T17:22:59.336Z,76.24
2018-12-09T17:25:04.300Z,75.69
2018-12-09T17:27:12.271Z,75.98
2018-12-09T17:29:17.775Z,75.18
2018-12-09T17:31:22.741Z,76.50
2018-12-09T17:33:28.664Z,76.26
2018-12-09T17:35:35.060Z,75.08
2018-12-09T17:37:39.960Z,75.45
2018-12-09T17:39:45.550Z,74.19
2018-12-09T17:41:50.377Z,74.78
2018-12-09T17:43:55.700Z,74.60
2018-12-09T17:46:00.501Z,74.18
2018-12-09T17:48:05.898Z,74.59
2018-12-09T17:50:12.824Z,75.11
2018-12-09T17:52:18.194Z,74.60
2018-12-09T17:54:23.123Z,74.89
2018-12-09T17:56:27.886Z,74.49
2018-12-09T17:58:33.962Z,74.32
2018-12-09T18:00:39.647Z,74.89
2018-12-09T18:02:44.570Z,75.13
2018-12-09T18:04:51.516Z,73.85
2018-12-09T18:06:59.897Z,74.80
2018-12-09T18:09:08.499Z,73.91
2018-12-09T18:11:14.504Z,73.07
2018-12-09T18:13:20.402Z,73.16
2018-12-09T18:15:26.683Z,73.30
2018-12-09T18:17:32.032Z,72.80
2018-12-09T18:19:36.928Z,73.06
2018-12-09T18:21:41.953Z,73.58
2018-12-09T18:23:46.810Z,72.94
2018-12-09T18:25:51.611Z,73.62
2018-12-09T18:27:56.527Z,73.99
2018-12-09T18:30:01.514Z,73.84
2018-12-09T18:32:06.599Z,74.29
2018-12-09T18:34:11.609Z,73.86
2018-12-09T18:36:16.649Z,73.56
2018-12-09T18:38:22.231Z,73.96
2018-12-09T18:40:28.204Z,74.42
2018-12-09T18:42:39.708Z,73.93
2018-12-09T18:44:44.480Z,73.24
2018-12-09T18:46:49.592Z,73.37
2018-12-09T18:48:55.999Z,73.01
2018-12-09T18:51:01.019Z,72.53
2018-12-09T18:53:06.151Z,72.27
2018-12-09T18:55:11.131Z,72.36
2018-12-09T18:57:17.598Z,71.98
2018-12-09T18:59:22.532Z,72.50
2018-12-09T19:01:27.475Z,72.61
2018-12-09T19:03:32.352Z,73.14
2018-12-09T19:05:37.330Z,73.33
2018-12-09T19:07:42.480Z,72.90
2018-12-09T19:09:48.020Z,73.89
2018-12-09T19:11:55.769Z,74.06
2018-12-09T19:14:01.827Z,73.09
2018-12-09T19:16:06.762Z,73.94
2018-12-09T19:18:13.818Z,74.07
2018-12-09T19:20:18.652Z,74.65
2018-12-09T19:22:23.913Z,74.85
2018-12-09T19:24:28.934Z,74.48
2018-12-09T19:26:33.949Z,74.94
2018-12-09T19:28:39.118Z,74.01
2018-12-09T19:30:48.310Z,74.85
2018-12-09T19:32:53.523Z,74.96
2018-12-09T19:35:01.598Z,75.44
2018-12-09T19:37:07.201Z,75.45
2018-12-09T19:39:12.363Z,75.41
2018-12-09T19:41:17.452Z,75.91
2018-12-09T19:43:28.674Z,74.92
2018-12-09T19:45:33.876Z,75.46
2018-12-09T19:47:42.645Z,75.58
2018-12-09T19:49:51.019Z,75.78
2018-12-09T19:51:56.535Z,75.78
2018-12-09T19:54:01.935Z,76.03
2018-12-09T19:56:08.065Z,75.18
2018-12-09T19:58:13.955Z,75.35
2018-12-09T20:00:19.650Z,75.84
2018-12-09T20:02:25.155Z,75.74
2018-12-09T20:04:31.477Z,75.30
2018-12-09T20:06:39.437Z,75.43
2018-12-09T20:08:46.874Z,75.56
2018-12-09T20:10:51.973Z,75.47
2018-12-09T20:12:57.295Z,75.88
2018-12-09T20:15:04.040Z,76.17
2018-12-09T20:17:10.960Z,75.86
2018-12-09T20:19:16.357Z,76.00
2018-12-09T20:21:22.112Z,75.62
2018-12-09T20:23:27.423Z,76.04
2018-12-09T20:25:33.758Z,75.61
2018-12-09T20:27:39.247Z,74.99
2018-12-09T20:29:45.704Z,75.37
2018-12-09T20:31:50.707Z,75.50
2018-12-09T20:33:56.675Z,75.71
2018-12-09T20:36:04.026Z,75.65
2018-12-09T20:38:09.109Z,75.43
2018-12-09T20:40:16.993Z,75.08
2018-12-09T20:42:22.168Z,74.92
2018-12-09T20:44:27.964Z,74.67
2018-12-09T20:46:33.314Z,74.10
2018-12-09T20:48:38.789Z,74.61
2018-12-09T20:50:45.936Z,74.89
2018-12-09T20:53:00.969Z,73.82
2018-12-09T20:55:07.742Z,73.96
2018-12-09T20:57:16.814Z,73.55
2018-12-09T20:59:24.294Z,72.67
2018-12-09T21:01:30.077Z,72.90
2018-12-09T21:03:35.755Z,72.83
2018-12-09T21:05:41.139Z,72.42
2018-12-09T21:07:47.385Z,72.54
2018-12-09T21:09:53.380Z,72.46
2018-12-09T21:11:58.826Z,72.65
2018-12-09T21:14:04.578Z,73.76
2018-12-09T21:16:11.474Z,73.54
2018-12-09T21:18:16.802Z,73.51
2018-12-09T21:20:22.274Z,73.82
2018-12-09T21:22:29.042Z,74.67
2018-12-09T21:24:34.530Z,75.19
2018-12-09T21:26:40.016Z,74.36
2018-12-09T21:28:45.033Z,74.64
2018-12-09T21:30:50.191Z,74.36
2018-12-09T21:35:10.292Z,74.87
2018-12-09T21:37:15.501Z,75.23
2018-12-09T21:39:21.122Z,76.28
2018-12-09T21:41:26.482Z,76.32
2018-12-09T21:43:31.593Z,76.20
2018-12-09T21:45:37.139Z,76.48
2018-12-09T21:47:43.167Z,75.98
2018-12-09T21:49:48.136Z,75.58
2018-12-09T21:51:54.295Z,75.48
2018-12-09T21:53:59.492Z,75.49
2018-12-09T21:56:04.988Z,76.19
2018-12-09T21:58:13.602Z,76.14
2018-12-09T22:00:21.061Z,76.19
2018-12-09T22:02:27.159Z,75.85
2018-12-09T22:04:33.173Z,76.02
2018-12-09T22:06:39.754Z,76.31
2018-12-09T22:08:46.929Z,76.22
2018-12-09T22:10:59.456Z,76.26
2018-12-09T22:13:04.803Z,76.34
2018-12-09T22:15:12.051Z,76.72
2018-12-09T22:17:17.051Z,76.93
2018-12-09T22:19:22.654Z,76.62
2018-12-09T22:21:33.189Z,76.19
2018-12-09T22:23:38.685Z,75.95
2018-12-09T22:25:45.776Z,75.76
2018-12-09T22:27:50.688Z,75.87
2018-12-09T22:29:56.314Z,75.35
2018-12-09T22:32:01.113Z,74.93
2018-12-09T22:34:07.118Z,75.69
2018-12-09T22:36:11.945Z,75.73
2018-12-09T22:38:17.509Z,75.03
2018-12-09T22:40:22.314Z,75.26
2018-12-09T22:42:27.584Z,75.47
2018-12-09T22:44:32.341Z,75.40
2018-12-09T22:46:37.049Z,75.70
2018-12-09T22:48:43.592Z,76.07
2018-12-09T22:50:48.342Z,75.87
2018-12-09T22:52:53.078Z,75.90
2018-12-09T22:54:58.228Z,76.14
2018-12-09T22:57:03.018Z,75.61
2018-12-09T22:59:08.684Z,75.13
2018-12-09T23:01:20.106Z,74.82
2018-12-09T23:03:26.027Z,74.67
2018-12-09T23:05:31.719Z,75.42
2018-12-09T23:07:41.685Z,75.07
2018-12-09T23:09:46.569Z,75.04
2018-12-09T23:11:52.946Z,74.39
2018-12-09T23:13:58.331Z,74.52
2018-12-09T23:16:03.175Z,73.99
2018-12-09T23:18:09.215Z,74.51
2018-12-09T23:20:14.535Z,74.75
2018-12-09T23:22:19.336Z,74.46
2018-12-09T23:24:24.114Z,74.66
2018-12-09T23:26:28.903Z,74.63
2018-12-09T23:28:33.748Z,74.96
2018-12-09T23:30:38.782Z,74.51
2018-12-09T23:32:43.552Z,74.41
2018-12-09T23:34:48.501Z,74.60
2018-12-09T23:36:53.312Z,74.78
2018-12-09T23:38:57.980Z,74.77
2018-12-09T23:41:02.741Z,74.48
2018-12-09T23:43:07.553Z,74.28
2018-12-09T23:45:12.533Z,74.15
2018-12-09T23:47:17.404Z,74.39
2018-12-09T23:49:22.322Z,73.80
2018-12-09T23:51:27.070Z,74.15
2018-12-09T23:53:32.496Z,73.34
2018-12-09T23:55:43.864Z,74.17
2018-12-09T23:57:48.569Z,74.43
2018-12-09T23:59:53.392Z,74.33
